sensor_id;sensor_type;location;lat;lon;timestamp;temperature;humidity
6986;DHT22;3533;51.246;6.850;2022-09-27T00:02:13;22.20;41.10
6986;DHT22;3533;51.246;6.850;2022-09-27T00:04:38;22.20;41.10
6986;DHT22;3533;51.246;6.850;2022-09-27T00:07:04;22.20;41.10
6986;DHT22;3533;51.246;6.850;2022-09-27T00:09:30;22.20;41.10
6986;DHT22;3533;51.246;6.850;2022-09-27T00:11:56;22.30;41.20
6986;DHT22;3533;51.246;6.850;2022-09-27T00:14:21;22.20;41.10
6986;DHT22;3533;51.246;6.850;2022-09-27T00:16:47;22.20;41.20
6986;DHT22;3533;51.246;6.850;2022-09-27T00:19:15;22.20;41.10
6986;DHT22;3533;51.246;6.850;2022-09-27T00:21:42;22.20;41.10
6986;DHT22;3533;51.246;6.850;2022-09-27T00:24:15;22.20;41.10
6986;DHT22;3533;51.246;6.850;2022-09-27T00:26:41;22.20;41.10
6986;DHT22;3533;51.246;6.850;2022-09-27T00:29:08;22.20;41.10
6986;DHT22;3533;51.246;6.850;2022-09-27T00:31:36;22.20;41.10
6986;DHT22;3533;51.246;6.850;2022-09-27T00:34:03;22.20;41.90
6986;DHT22;3533;51.246;6.850;2022-09-27T00:36:30;22.20;41.10
6986;DHT22;3533;51.246;6.850;2022-09-27T00:38:56;22.20;41.10
6986;DHT22;3533;51.246;6.850;2022-09-27T00:41:29;22.20;41.10
6986;DHT22;3533;51.246;6.850;2022-09-27T00:44:05;22.20;41.10
6986;DHT22;3533;51.246;6.850;2022-09-27T00:49:50;22.20;41.10
6986;DHT22;3533;51.246;6.850;2022-09-27T00:54:54;22.20;41.90
6986;DHT22;3533;51.246;6.850;2022-09-27T00:57:22;22.20;41.10
6986;DHT22;3533;51.246;6.850;2022-09-27T01:00:14;22.20;41.10
6986;DHT22;3533;51.246;6.850;2022-09-27T01:02:44;22.20;41.10
6986;DHT22;3533;51.246;6.850;2022-09-27T01:05:13;22.20;41.10
6986;DHT22;3533;51.246;6.850;2022-09-27T01:07:39;22.20;41.10
6986;DHT22;3533;51.246;6.850;2022-09-27T01:10:06;22.20;41.10
6986;DHT22;3533;51.246;6.850;2022-09-27T01:15:36;22.20;41.10
6986;DHT22;3533;51.246;6.850;2022-09-27T01:18:16;22.20;41.10
6986;DHT22;3533;51.246;6.850;2022-09-27T01:21:12;22.20;41.10
6986;DHT22;3533;51.246;6.850;2022-09-27T01:31:48;22.20;41.10
6986;DHT22;3533;51.246;6.850;2022-09-27T01:34:25;22.20;41.10
6986;DHT22;3533;51.246;6.850;2022-09-27T01:37:09;22.20;41.10
6986;DHT22;3533;51.246;6.850;2022-09-27T01:40:01;22.20;41.10
6986;DHT22;3533;51.246;6.850;2022-09-27T01:43:05;22.20;41.10
6986;DHT22;3533;51.246;6.850;2022-09-27T01:48:24;22.20;41.10
6986;DHT22;3533;51.246;6.850;2022-09-27T01:53:35;22.20;41.10
6986;DHT22;3533;51.246;6.850;2022-09-27T01:56:08;22.20;41.10
6986;DHT22;3533;51.246;6.850;2022-09-27T02:01:27;22.20;41.10
6986;DHT22;3533;51.246;6.850;2022-09-27T02:03:54;22.20;41.10
6986;DHT22;3533;51.246;6.850;2022-09-27T02:06:27;22.20;41.10
6986;DHT22;3533;51.246;6.850;2022-09-27T02:09:02;22.20;41.10
6986;DHT22;3533;51.246;6.850;2022-09-27T02:11:29;22.20;41.10
6986;DHT22;3533;51.246;6.850;2022-09-27T02:14:26;22.20;41.10
6986;DHT22;3533;51.246;6.850;2022-09-27T02:16:59;22.20;41.10
6986;DHT22;3533;51.246;6.850;2022-09-27T02:22:35;22.20;41.10
6986;DHT22;3533;51.246;6.850;2022-09-27T02:27:38;22.20;41.30
6986;DHT22;3533;51.246;6.850;2022-09-27T02:30:09;22.20;41.10
6986;DHT22;3533;51.246;6.850;2022-09-27T02:32:36;22.20;41.10
6986;DHT22;3533;51.246;6.850;2022-09-27T02:35:14;22.20;41.10
6986;DHT22;3533;51.246;6.850;2022-09-27T02:37:41;22.20;41.10
6986;DHT22;3533;51.246;6.850;2022-09-27T02:40:07;22.20;41.10
6986;DHT22;3533;51.246;6.850;2022-09-27T02:42:34;22.20;41.10
6986;DHT22;3533;51.246;6.850;2022-09-27T02:45:01;22.20;41.10
6986;DHT22;3533;51.246;6.850;2022-09-27T02:48:03;22.20;41.10
6986;DHT22;3533;51.246;6.850;2022-09-27T02:53:40;22.20;41.10
6986;DHT22;3533;51.246;6.850;2022-09-27T02:56:11;22.10;41.10
6986;DHT22;3533;51.246;6.850;2022-09-27T03:01:19;22.20;41.10
6986;DHT22;3533;51.246;6.850;2022-09-27T03:06:35;22.20;41.10
6986;DHT22;3533;51.246;6.850;2022-09-27T03:09:02;22.10;41.10
6986;DHT22;3533;51.246;6.850;2022-09-27T03:11:27;22.10;41.10
6986;DHT22;3533;51.246;6.850;2022-09-27T03:13:53;22.20;41.10
6986;DHT22;3533;51.246;6.850;2022-09-27T03:16:18;22.20;41.10
6986;DHT22;3533;51.246;6.850;2022-09-27T03:18:44;22.20;41.10
6986;DHT22;3533;51.246;6.850;2022-09-27T03:21:10;22.20;41.10
6986;DHT22;3533;51.246;6.850;2022-09-27T03:23:35;22.20;41.10
6986;DHT22;3533;51.246;6.850;2022-09-27T03:26:01;22.20;41.10
6986;DHT22;3533;51.246;6.850;2022-09-27T03:28:26;22.10;41.10
6986;DHT22;3533;51.246;6.850;2022-09-27T03:30:54;22.20;41.10
6986;DHT22;3533;51.246;6.850;2022-09-27T03:33:19;22.10;41.10
6986;DHT22;3533;51.246;6.850;2022-09-27T03:35:45;22.20;41.10
6986;DHT22;3533;51.246;6.850;2022-09-27T03:38:11;22.20;41.20
6986;DHT22;3533;51.246;6.850;2022-09-27T03:40:37;22.20;41.10
6986;DHT22;3533;51.246;6.850;2022-09-27T03:43:02;22.10;41.80
6986;DHT22;3533;51.246;6.850;2022-09-27T03:45:28;22.10;41.10
6986;DHT22;3533;51.246;6.850;2022-09-27T03:47:54;22.10;41.10
6986;DHT22;3533;51.246;6.850;2022-09-27T03:50:19;22.10;41.10
6986;DHT22;3533;51.246;6.850;2022-09-27T03:52:45;22.10;41.10
6986;DHT22;3533;51.246;6.850;2022-09-27T03:55:11;22.10;41.10
6986;DHT22;3533;51.246;6.850;2022-09-27T03:57:37;22.10;41.10
6986;DHT22;3533;51.246;6.850;2022-09-27T04:00:04;22.10;41.10
6986;DHT22;3533;51.246;6.850;2022-09-27T04:02:30;22.10;41.10
6986;DHT22;3533;51.246;6.850;2022-09-27T04:04:55;22.10;41.10
6986;DHT22;3533;51.246;6.850;2022-09-27T04:07:21;22.10;41.10
6986;DHT22;3533;51.246;6.850;2022-09-27T04:09:48;22.10;41.10
6986;DHT22;3533;51.246;6.850;2022-09-27T04:12:13;22.10;41.10
6986;DHT22;3533;51.246;6.850;2022-09-27T04:14:39;22.10;41.10
6986;DHT22;3533;51.246;6.850;2022-09-27T04:17:04;22.10;41.10
6986;DHT22;3533;51.246;6.850;2022-09-27T04:19:30;22.10;41.10
6986;DHT22;3533;51.246;6.850;2022-09-27T04:21:56;22.10;41.10
6986;DHT22;3533;51.246;6.850;2022-09-27T04:24:22;22.10;41.10
6986;DHT22;3533;51.246;6.850;2022-09-27T04:26:47;22.10;41.10
6986;DHT22;3533;51.246;6.850;2022-09-27T04:29:13;22.10;41.10
6986;DHT22;3533;51.246;6.850;2022-09-27T04:31:40;22.20;41.10
6986;DHT22;3533;51.246;6.850;2022-09-27T04:34:06;22.20;41.10
6986;DHT22;3533;51.246;6.850;2022-09-27T04:36:32;22.20;41.00
6986;DHT22;3533;51.246;6.850;2022-09-27T04:39:00;22.20;40.90
6986;DHT22;3533;51.246;6.850;2022-09-27T04:41:27;22.20;40.80
6986;DHT22;3533;51.246;6.850;2022-09-27T04:43:54;22.20;40.80
6986;DHT22;3533;51.246;6.850;2022-09-27T04:46:20;22.20;40.70
6986;DHT22;3533;51.246;6.850;2022-09-27T04:48:46;22.20;40.70
6986;DHT22;3533;51.246;6.850;2022-09-27T04:51:12;22.20;40.70
6986;DHT22;3533;51.246;6.850;2022-09-27T04:53:40;22.20;40.70
6986;DHT22;3533;51.246;6.850;2022-09-27T04:56:06;22.30;40.80
6986;DHT22;3533;51.246;6.850;2022-09-27T04:58:33;22.20;40.70
6986;DHT22;3533;51.246;6.850;2022-09-27T05:00:59;22.20;40.70
6986;DHT22;3533;51.246;6.850;2022-09-27T05:03:26;22.20;40.70
6986;DHT22;3533;51.246;6.850;2022-09-27T05:05:53;22.20;40.70
6986;DHT22;3533;51.246;6.850;2022-09-27T05:08:18;22.20;40.70
6986;DHT22;3533;51.246;6.850;2022-09-27T05:10:45;22.20;40.70
6986;DHT22;3533;51.246;6.850;2022-09-27T05:13:12;22.20;40.70
6986;DHT22;3533;51.246;6.850;2022-09-27T05:15:38;22.20;40.80
6986;DHT22;3533;51.246;6.850;2022-09-27T05:18:04;22.20;40.70
6986;DHT22;3533;51.246;6.850;2022-09-27T05:20:30;22.20;40.60
6986;DHT22;3533;51.246;6.850;2022-09-27T05:22:55;22.20;40.70
6986;DHT22;3533;51.246;6.850;2022-09-27T05:25:21;22.20;41.50
6986;DHT22;3533;51.246;6.850;2022-09-27T05:27:46;22.20;40.70
6986;DHT22;3533;51.246;6.850;2022-09-27T05:30:12;22.20;40.70
6986;DHT22;3533;51.246;6.850;2022-09-27T05:32:47;22.20;40.80
6986;DHT22;3533;51.246;6.850;2022-09-27T05:35:15;22.20;40.70
6986;DHT22;3533;51.246;6.850;2022-09-27T05:37:41;22.20;40.70
6986;DHT22;3533;51.246;6.850;2022-09-27T05:40:07;22.20;40.70
6986;DHT22;3533;51.246;6.850;2022-09-27T05:42:33;22.20;40.80
6986;DHT22;3533;51.246;6.850;2022-09-27T05:45:00;22.20;40.70
6986;DHT22;3533;51.246;6.850;2022-09-27T05:47:26;22.20;40.70
6986;DHT22;3533;51.246;6.850;2022-09-27T05:49:51;22.20;41.50
6986;DHT22;3533;51.246;6.850;2022-09-27T05:52:18;22.20;40.70
6986;DHT22;3533;51.246;6.850;2022-09-27T05:54:43;22.20;40.70
6986;DHT22;3533;51.246;6.850;2022-09-27T05:57:09;22.20;40.70
6986;DHT22;3533;51.246;6.850;2022-09-27T05:59:35;22.20;40.70
6986;DHT22;3533;51.246;6.850;2022-09-27T06:02:00;22.20;40.70
6986;DHT22;3533;51.246;6.850;2022-09-27T06:04:26;22.20;40.70
6986;DHT22;3533;51.246;6.850;2022-09-27T06:06:52;22.20;40.70
6986;DHT22;3533;51.246;6.850;2022-09-27T06:09:17;22.20;40.70
6986;DHT22;3533;51.246;6.850;2022-09-27T06:11:43;22.20;40.80
6986;DHT22;3533;51.246;6.850;2022-09-27T06:14:13;22.20;40.70
6986;DHT22;3533;51.246;6.850;2022-09-27T06:16:39;22.20;40.70
6986;DHT22;3533;51.246;6.850;2022-09-27T06:19:04;22.20;40.70
6986;DHT22;3533;51.246;6.850;2022-09-27T06:21:30;22.20;40.70
6986;DHT22;3533;51.246;6.850;2022-09-27T06:23:57;22.20;40.60
6986;DHT22;3533;51.246;6.850;2022-09-27T06:26:25;22.20;40.70
6986;DHT22;3533;51.246;6.850;2022-09-27T06:28:54;22.20;40.70
6986;DHT22;3533;51.246;6.850;2022-09-27T06:31:19;22.20;40.70
6986;DHT22;3533;51.246;6.850;2022-09-27T06:33:46;22.20;40.60
6986;DHT22;3533;51.246;6.850;2022-09-27T06:36:12;22.20;40.70
6986;DHT22;3533;51.246;6.850;2022-09-27T06:38:37;22.20;40.70
6986;DHT22;3533;51.246;6.850;2022-09-27T06:41:04;22.20;40.60
6986;DHT22;3533;51.246;6.850;2022-09-27T06:43:31;22.20;40.70
6986;DHT22;3533;51.246;6.850;2022-09-27T06:45:59;22.20;40.60
6986;DHT22;3533;51.246;6.850;2022-09-27T06:48:29;22.20;40.60
6986;DHT22;3533;51.246;6.850;2022-09-27T06:50:55;22.20;40.70
6986;DHT22;3533;51.246;6.850;2022-09-27T06:53:23;22.20;40.60
6986;DHT22;3533;51.246;6.850;2022-09-27T06:55:49;22.20;40.70
6986;DHT22;3533;51.246;6.850;2022-09-27T06:58:16;22.20;40.60
6986;DHT22;3533;51.246;6.850;2022-09-27T07:01:00;22.20;40.60
6986;DHT22;3533;51.246;6.850;2022-09-27T07:03:26;22.20;40.60
6986;DHT22;3533;51.246;6.850;2022-09-27T07:05:57;22.20;40.70
6986;DHT22;3533;51.246;6.850;2022-09-27T07:08:24;22.20;40.70
6986;DHT22;3533;51.246;6.850;2022-09-27T07:10:50;22.20;40.60
6986;DHT22;3533;51.246;6.850;2022-09-27T07:13:17;22.20;40.60
6986;DHT22;3533;51.246;6.850;2022-09-27T07:15:43;22.20;40.70
6986;DHT22;3533;51.246;6.850;2022-09-27T07:18:08;22.20;40.60
6986;DHT22;3533;51.246;6.850;2022-09-27T07:20:34;22.20;40.60
6986;DHT22;3533;51.246;6.850;2022-09-27T07:23:04;22.20;40.60
6986;DHT22;3533;51.246;6.850;2022-09-27T07:25:29;22.20;40.60
6986;DHT22;3533;51.246;6.850;2022-09-27T07:28:03;22.20;40.60
6986;DHT22;3533;51.246;6.850;2022-09-27T07:30:29;22.20;40.50
6986;DHT22;3533;51.246;6.850;2022-09-27T07:32:58;22.20;40.50
6986;DHT22;3533;51.246;6.850;2022-09-27T07:35:24;22.20;40.50
6986;DHT22;3533;51.246;6.850;2022-09-27T07:37:50;22.20;40.50
6986;DHT22;3533;51.246;6.850;2022-09-27T07:40:16;22.20;40.50
6986;DHT22;3533;51.246;6.850;2022-09-27T07:42:42;22.20;40.50
6986;DHT22;3533;51.246;6.850;2022-09-27T07:45:09;22.20;40.50
6986;DHT22;3533;51.246;6.850;2022-09-27T07:47:40;22.20;40.50
6986;DHT22;3533;51.246;6.850;2022-09-27T07:50:08;22.20;40.50
6986;DHT22;3533;51.246;6.850;2022-09-27T07:52:39;22.20;40.40
6986;DHT22;3533;51.246;6.850;2022-09-27T07:55:06;22.20;40.30
6986;DHT22;3533;51.246;6.850;2022-09-27T07:57:32;22.20;40.40
6986;DHT22;3533;51.246;6.850;2022-09-27T07:59:58;22.20;40.40
6986;DHT22;3533;51.246;6.850;2022-09-27T08:02:24;22.20;40.40
6986;DHT22;3533;51.246;6.850;2022-09-27T08:04:49;22.20;40.40
6986;DHT22;3533;51.246;6.850;2022-09-27T08:07:16;22.20;40.40
6986;DHT22;3533;51.246;6.850;2022-09-27T08:09:41;22.20;40.50
6986;DHT22;3533;51.246;6.850;2022-09-27T08:12:07;22.20;40.40
6986;DHT22;3533;51.246;6.850;2022-09-27T08:14:32;22.20;40.30
6986;DHT22;3533;51.246;6.850;2022-09-27T08:16:58;22.20;40.30
6986;DHT22;3533;51.246;6.850;2022-09-27T08:19:24;22.20;40.40
6986;DHT22;3533;51.246;6.850;2022-09-27T08:21:51;22.20;40.30
6986;DHT22;3533;51.246;6.850;2022-09-27T08:24:19;22.20;40.30
6986;DHT22;3533;51.246;6.850;2022-09-27T08:26:45;22.10;40.30
6986;DHT22;3533;51.246;6.850;2022-09-27T08:29:11;22.20;40.40
6986;DHT22;3533;51.246;6.850;2022-09-27T08:31:37;22.20;40.30
6986;DHT22;3533;51.246;6.850;2022-09-27T08:34:02;22.20;40.30
6986;DHT22;3533;51.246;6.850;2022-09-27T08:36:29;22.10;40.30
6986;DHT22;3533;51.246;6.850;2022-09-27T08:38:56;22.20;40.40
6986;DHT22;3533;51.246;6.850;2022-09-27T08:41:46;22.20;40.30
6986;DHT22;3533;51.246;6.850;2022-09-27T08:47:23;22.20;40.30
6986;DHT22;3533;51.246;6.850;2022-09-27T08:52:30;22.20;40.30
6986;DHT22;3533;51.246;6.850;2022-09-27T08:55:03;22.20;40.30
6986;DHT22;3533;51.246;6.850;2022-09-27T08:57:30;22.20;40.40
6986;DHT22;3533;51.246;6.850;2022-09-27T09:00:09;22.20;40.30
6986;DHT22;3533;51.246;6.850;2022-09-27T09:02:36;22.20;40.30
6986;DHT22;3533;51.246;6.850;2022-09-27T09:05:10;22.10;40.30
6986;DHT22;3533;51.246;6.850;2022-09-27T09:10:35;22.10;40.30
6986;DHT22;3533;51.246;6.850;2022-09-27T09:13:45;22.10;40.30
6986;DHT22;3533;51.246;6.850;2022-09-27T09:16:16;22.10;40.20
6986;DHT22;3533;51.246;6.850;2022-09-27T09:24:51;22.10;40.20
6986;DHT22;3533;51.246;6.850;2022-09-27T09:27:34;22.10;40.30
6986;DHT22;3533;51.246;6.850;2022-09-27T09:35:32;22.10;40.20
6986;DHT22;3533;51.246;6.850;2022-09-27T09:38:02;22.10;40.20
6986;DHT22;3533;51.246;6.850;2022-09-27T09:40:52;22.10;40.20
6986;DHT22;3533;51.246;6.850;2022-09-27T09:43:38;22.10;40.10
6986;DHT22;3533;51.246;6.850;2022-09-27T09:46:19;22.10;40.20
6986;DHT22;3533;51.246;6.850;2022-09-27T09:49:12;22.10;40.20
6986;DHT22;3533;51.246;6.850;2022-09-27T09:51:45;22.10;40.10
6986;DHT22;3533;51.246;6.850;2022-09-27T09:54:35;22.10;40.20
6986;DHT22;3533;51.246;6.850;2022-09-27T09:57:13;22.10;40.20
6986;DHT22;3533;51.246;6.850;2022-09-27T09:59:44;22.10;40.20
6986;DHT22;3533;51.246;6.850;2022-09-27T10:02:42;22.10;40.20
6986;DHT22;3533;51.246;6.850;2022-09-27T10:05:12;22.10;40.20
6986;DHT22;3533;51.246;6.850;2022-09-27T10:07:38;22.10;40.10
6986;DHT22;3533;51.246;6.850;2022-09-27T10:10:05;22.20;40.20
6986;DHT22;3533;51.246;6.850;2022-09-27T10:12:31;22.20;40.20
6986;DHT22;3533;51.246;6.850;2022-09-27T10:15:00;22.10;40.20
6986;DHT22;3533;51.246;6.850;2022-09-27T10:17:38;22.20;40.20
6986;DHT22;3533;51.246;6.850;2022-09-27T10:20:05;22.20;40.20
6986;DHT22;3533;51.246;6.850;2022-09-27T10:22:39;22.20;40.20
6986;DHT22;3533;51.246;6.850;2022-09-27T10:25:08;22.10;40.10
6986;DHT22;3533;51.246;6.850;2022-09-27T10:27:42;22.20;40.20
6986;DHT22;3533;51.246;6.850;2022-09-27T10:30:26;22.20;40.20
6986;DHT22;3533;51.246;6.850;2022-09-27T10:32:55;22.10;40.10
6986;DHT22;3533;51.246;6.850;2022-09-27T10:38:30;22.20;40.20
6986;DHT22;3533;51.246;6.850;2022-09-27T10:41:14;22.10;40.20
6986;DHT22;3533;51.246;6.850;2022-09-27T10:43:40;22.10;40.30
6986;DHT22;3533;51.246;6.850;2022-09-27T10:46:31;22.10;40.20
6986;DHT22;3533;51.246;6.850;2022-09-27T10:51:48;22.20;40.30
6986;DHT22;3533;51.246;6.850;2022-09-27T10:54:31;22.10;40.30
6986;DHT22;3533;51.246;6.850;2022-09-27T10:57:03;22.10;40.30
6986;DHT22;3533;51.246;6.850;2022-09-27T10:59:35;22.10;40.20
6986;DHT22;3533;51.246;6.850;2022-09-27T11:02:01;22.10;40.20
6986;DHT22;3533;51.246;6.850;2022-09-27T11:07:15;22.10;40.30
6986;DHT22;3533;51.246;6.850;2022-09-27T11:09:54;22.20;40.30
6986;DHT22;3533;51.246;6.850;2022-09-27T11:12:21;22.10;40.30
6986;DHT22;3533;51.246;6.850;2022-09-27T11:14:57;22.20;40.30
6986;DHT22;3533;51.246;6.850;2022-09-27T11:17:52;22.10;40.30
6986;DHT22;3533;51.246;6.850;2022-09-27T11:20:50;22.10;40.30
6986;DHT22;3533;51.246;6.850;2022-09-27T11:26:42;22.10;40.30
6986;DHT22;3533;51.246;6.850;2022-09-27T11:32:27;22.10;40.30
6986;DHT22;3533;51.246;6.850;2022-09-27T11:37:37;22.10;40.30
6986;DHT22;3533;51.246;6.850;2022-09-27T11:40:27;22.10;41.10
6986;DHT22;3533;51.246;6.850;2022-09-27T11:56:38;22.20;40.50
6986;DHT22;3533;51.246;6.850;2022-09-27T12:10:53;22.10;40.30
6986;DHT22;3533;51.246;6.850;2022-09-27T12:13:31;22.10;40.40
6986;DHT22;3533;51.246;6.850;2022-09-27T12:15:59;22.10;40.30
6986;DHT22;3533;51.246;6.850;2022-09-27T12:18:31;22.10;40.30
6986;DHT22;3533;51.246;6.850;2022-09-27T12:21:01;22.20;40.40
6986;DHT22;3533;51.246;6.850;2022-09-27T12:23:48;22.10;40.30
6986;DHT22;3533;51.246;6.850;2022-09-27T12:26:19;22.20;40.30
6986;DHT22;3533;51.246;6.850;2022-09-27T12:29:11;22.10;40.30
6986;DHT22;3533;51.246;6.850;2022-09-27T12:34:44;22.10;40.30
6986;DHT22;3533;51.246;6.850;2022-09-27T12:37:15;22.20;40.90
6986;DHT22;3533;51.246;6.850;2022-09-27T12:39:50;22.20;40.40
6986;DHT22;3533;51.246;6.850;2022-09-27T12:42:35;22.20;40.30
6986;DHT22;3533;51.246;6.850;2022-09-27T12:45:03;22.10;40.30
6986;DHT22;3533;51.246;6.850;2022-09-27T12:50:35;22.10;40.30
6986;DHT22;3533;51.246;6.850;2022-09-27T12:53:21;22.20;40.40
6986;DHT22;3533;51.246;6.850;2022-09-27T13:09:27;22.10;40.30
6986;DHT22;3533;51.246;6.850;2022-09-27T13:22:51;22.10;40.30
6986;DHT22;3533;51.246;6.850;2022-09-27T13:31:12;22.10;40.30
6986;DHT22;3533;51.246;6.850;2022-09-27T13:33:50;22.10;40.30
6986;DHT22;3533;51.246;6.850;2022-09-27T13:47:30;22.10;40.30
6986;DHT22;3533;51.246;6.850;2022-09-27T13:50:24;22.10;40.30
6986;DHT22;3533;51.246;6.850;2022-09-27T13:55:48;22.20;40.30
6986;DHT22;3533;51.246;6.850;2022-09-27T14:00:59;22.10;40.30
6986;DHT22;3533;51.246;6.850;2022-09-27T14:03:50;22.10;40.30
6986;DHT22;3533;51.246;6.850;2022-09-27T14:06:19;22.10;40.30
6986;DHT22;3533;51.246;6.850;2022-09-27T14:08:58;22.10;40.30
6986;DHT22;3533;51.246;6.850;2022-09-27T14:11:41;22.10;40.30
6986;DHT22;3533;51.246;6.850;2022-09-27T14:14:14;22.20;40.50
6986;DHT22;3533;51.246;6.850;2022-09-27T14:16:43;22.10;40.30
6986;DHT22;3533;51.246;6.850;2022-09-27T14:19:14;22.20;40.40
6986;DHT22;3533;51.246;6.850;2022-09-27T14:22:00;22.20;40.40
6986;DHT22;3533;51.246;6.850;2022-09-27T14:27:15;22.10;40.30
6986;DHT22;3533;51.246;6.850;2022-09-27T14:29:53;22.10;40.30
6986;DHT22;3533;51.246;6.850;2022-09-27T14:32:26;22.20;40.30
6986;DHT22;3533;51.246;6.850;2022-09-27T14:38:01;22.20;40.30
6986;DHT22;3533;51.246;6.850;2022-09-27T14:40:27;22.20;40.30
6986;DHT22;3533;51.246;6.850;2022-09-27T14:42:55;22.10;40.30
6986;DHT22;3533;51.246;6.850;2022-09-27T14:45:36;22.10;40.20
6986;DHT22;3533;51.246;6.850;2022-09-27T14:48:21;22.10;40.20
6986;DHT22;3533;51.246;6.850;2022-09-27T14:50:59;22.10;40.30
6986;DHT22;3533;51.246;6.850;2022-09-27T14:53:30;22.10;40.30
6986;DHT22;3533;51.246;6.850;2022-09-27T14:55:56;22.20;40.30
6986;DHT22;3533;51.246;6.850;2022-09-27T14:58:22;22.10;40.30
6986;DHT22;3533;51.246;6.850;2022-09-27T15:00:49;22.20;40.30
6986;DHT22;3533;51.246;6.850;2022-09-27T15:03:29;22.20;40.30
6986;DHT22;3533;51.246;6.850;2022-09-27T15:05:57;22.20;40.30
6986;DHT22;3533;51.246;6.850;2022-09-27T15:08:27;22.20;40.30
6986;DHT22;3533;51.246;6.850;2022-09-27T15:10:59;22.10;40.30
6986;DHT22;3533;51.246;6.850;2022-09-27T15:13:25;22.20;40.30
6986;DHT22;3533;51.246;6.850;2022-09-27T15:15:52;22.20;40.30
6986;DHT22;3533;51.246;6.850;2022-09-27T15:18:38;22.10;40.20
6986;DHT22;3533;51.246;6.850;2022-09-27T15:21:07;22.10;40.20
6986;DHT22;3533;51.246;6.850;2022-09-27T15:23:38;22.20;40.30
6986;DHT22;3533;51.246;6.850;2022-09-27T15:26:21;22.20;41.10
6986;DHT22;3533;51.246;6.850;2022-09-27T15:28:50;22.10;40.30
6986;DHT22;3533;51.246;6.850;2022-09-27T15:31:27;22.20;40.20
6986;DHT22;3533;51.246;6.850;2022-09-27T15:33:54;22.20;40.30
6986;DHT22;3533;51.246;6.850;2022-09-27T15:39:18;22.10;40.20
6986;DHT22;3533;51.246;6.850;2022-09-27T15:42:19;22.10;40.20
6986;DHT22;3533;51.246;6.850;2022-09-27T15:52:49;22.20;40.20
6986;DHT22;3533;51.246;6.850;2022-09-27T15:55:17;22.20;40.20
6986;DHT22;3533;51.246;6.850;2022-09-27T15:57:46;22.20;40.20
6986;DHT22;3533;51.246;6.850;2022-09-27T16:00:16;22.20;40.20
6986;DHT22;3533;51.246;6.850;2022-09-27T16:02:42;22.20;40.20
6986;DHT22;3533;51.246;6.850;2022-09-27T16:05:08;22.20;40.20
6986;DHT22;3533;51.246;6.850;2022-09-27T16:07:33;22.20;40.20
6986;DHT22;3533;51.246;6.850;2022-09-27T16:09:59;22.20;40.10
6986;DHT22;3533;51.246;6.850;2022-09-27T16:12:25;22.20;40.10
6986;DHT22;3533;51.246;6.850;2022-09-27T16:14:54;22.20;40.10
6986;DHT22;3533;51.246;6.850;2022-09-27T16:17:20;22.20;40.10
6986;DHT22;3533;51.246;6.850;2022-09-27T16:19:45;22.20;40.10
6986;DHT22;3533;51.246;6.850;2022-09-27T16:22:11;22.20;40.10
6986;DHT22;3533;51.246;6.850;2022-09-27T16:24:36;22.20;40.10
6986;DHT22;3533;51.246;6.850;2022-09-27T16:27:02;22.20;40.10
6986;DHT22;3533;51.246;6.850;2022-09-27T16:29:29;22.20;40.10
6986;DHT22;3533;51.246;6.850;2022-09-27T16:31:54;22.20;40.10
6986;DHT22;3533;51.246;6.850;2022-09-27T16:34:20;22.20;40.10
6986;DHT22;3533;51.246;6.850;2022-09-27T16:36:47;22.20;40.10
6986;DHT22;3533;51.246;6.850;2022-09-27T16:39:13;22.20;40.10
6986;DHT22;3533;51.246;6.850;2022-09-27T16:41:39;22.20;40.10
6986;DHT22;3533;51.246;6.850;2022-09-27T16:44:12;22.20;40.10
6986;DHT22;3533;51.246;6.850;2022-09-27T16:46:42;22.20;40.10
6986;DHT22;3533;51.246;6.850;2022-09-27T16:49:10;22.30;40.10
6986;DHT22;3533;51.246;6.850;2022-09-27T16:51:56;22.30;40.20
6986;DHT22;3533;51.246;6.850;2022-09-27T16:54:25;22.20;40.10
6986;DHT22;3533;51.246;6.850;2022-09-27T16:56:54;22.20;40.00
6986;DHT22;3533;51.246;6.850;2022-09-27T16:59:19;22.20;40.00
6986;DHT22;3533;51.246;6.850;2022-09-27T17:01:45;22.20;40.00
6986;DHT22;3533;51.246;6.850;2022-09-27T17:04:11;22.20;40.10
6986;DHT22;3533;51.246;6.850;2022-09-27T17:06:38;22.20;40.00
6986;DHT22;3533;51.246;6.850;2022-09-27T17:09:04;22.20;40.00
6986;DHT22;3533;51.246;6.850;2022-09-27T17:11:30;22.20;40.00
6986;DHT22;3533;51.246;6.850;2022-09-27T17:13:56;22.30;40.10
6986;DHT22;3533;51.246;6.850;2022-09-27T17:16:22;22.30;40.10
6986;DHT22;3533;51.246;6.850;2022-09-27T17:18:48;22.30;40.10
6986;DHT22;3533;51.246;6.850;2022-09-27T17:21:13;22.20;40.00
6986;DHT22;3533;51.246;6.850;2022-09-27T17:23:39;22.20;40.00
6986;DHT22;3533;51.246;6.850;2022-09-27T17:26:07;22.30;40.10
6986;DHT22;3533;51.246;6.850;2022-09-27T17:28:38;22.30;40.20
6986;DHT22;3533;51.246;6.850;2022-09-27T17:31:06;22.20;40.00
6986;DHT22;3533;51.246;6.850;2022-09-27T17:33:35;22.20;40.00
6986;DHT22;3533;51.246;6.850;2022-09-27T17:36:06;22.20;40.00
6986;DHT22;3533;51.246;6.850;2022-09-27T17:38:33;22.20;40.00
6986;DHT22;3533;51.246;6.850;2022-09-27T17:41:03;22.20;40.00
6986;DHT22;3533;51.246;6.850;2022-09-27T17:43:30;22.20;40.00
6986;DHT22;3533;51.246;6.850;2022-09-27T17:46:08;22.30;40.10
6986;DHT22;3533;51.246;6.850;2022-09-27T17:48:35;22.20;40.00
6986;DHT22;3533;51.246;6.850;2022-09-27T17:51:20;22.30;40.10
6986;DHT22;3533;51.246;6.850;2022-09-27T17:53:46;22.30;40.10
6986;DHT22;3533;51.246;6.850;2022-09-27T17:56:13;22.20;40.10
6986;DHT22;3533;51.246;6.850;2022-09-27T17:58:43;22.20;40.10
6986;DHT22;3533;51.246;6.850;2022-09-27T18:01:10;22.20;40.10
6986;DHT22;3533;51.246;6.850;2022-09-27T18:03:35;22.30;40.10
6986;DHT22;3533;51.246;6.850;2022-09-27T18:06:08;22.20;40.00
6986;DHT22;3533;51.246;6.850;2022-09-27T18:08:34;22.30;40.10
6986;DHT22;3533;51.246;6.850;2022-09-27T18:11:07;22.20;40.10
6986;DHT22;3533;51.246;6.850;2022-09-27T18:13:34;22.30;40.10
6986;DHT22;3533;51.246;6.850;2022-09-27T18:16:12;22.20;40.00
6986;DHT22;3533;51.246;6.850;2022-09-27T18:18:40;22.20;40.10
6986;DHT22;3533;51.246;6.850;2022-09-27T18:21:11;22.30;40.20
6986;DHT22;3533;51.246;6.850;2022-09-27T18:23:38;22.30;40.20
6986;DHT22;3533;51.246;6.850;2022-09-27T18:26:05;22.20;40.00
6986;DHT22;3533;51.246;6.850;2022-09-27T18:28:35;22.20;40.00
6986;DHT22;3533;51.246;6.850;2022-09-27T18:31:04;22.20;40.10
6986;DHT22;3533;51.246;6.850;2022-09-27T18:33:32;22.30;40.20
6986;DHT22;3533;51.246;6.850;2022-09-27T18:36:17;22.20;40.10
6986;DHT22;3533;51.246;6.850;2022-09-27T18:38:44;22.20;40.10
6986;DHT22;3533;51.246;6.850;2022-09-27T18:41:15;22.20;40.10
6986;DHT22;3533;51.246;6.850;2022-09-27T18:43:42;22.30;40.20
6986;DHT22;3533;51.246;6.850;2022-09-27T18:46:11;22.20;40.10
6986;DHT22;3533;51.246;6.850;2022-09-27T18:48:37;22.30;40.20
6986;DHT22;3533;51.246;6.850;2022-09-27T18:51:24;22.20;40.10
6986;DHT22;3533;51.246;6.850;2022-09-27T18:53:58;22.20;40.10
6986;DHT22;3533;51.246;6.850;2022-09-27T18:56:24;22.20;40.10
6986;DHT22;3533;51.246;6.850;2022-09-27T18:58:51;22.20;40.10
6986;DHT22;3533;51.246;6.850;2022-09-27T19:01:18;22.20;40.10
6986;DHT22;3533;51.246;6.850;2022-09-27T19:03:44;22.20;40.20
6986;DHT22;3533;51.246;6.850;2022-09-27T19:06:18;22.20;40.10
6986;DHT22;3533;51.246;6.850;2022-09-27T19:08:44;22.20;40.10
6986;DHT22;3533;51.246;6.850;2022-09-27T19:11:16;22.20;40.10
6986;DHT22;3533;51.246;6.850;2022-09-27T19:13:43;22.20;40.10
6986;DHT22;3533;51.246;6.850;2022-09-27T19:16:09;22.20;40.90